createdAt,value
2022-11-10T00:03:36.808Z,53.60
2022-11-10T00:08:57.662Z,52.70
2022-11-10T00:14:37.188Z,43.17
2022-11-10T00:19:58.316Z,48.07
2022-11-10T00:25:19.167Z,51.60
2022-11-10T00:30:43.342Z,46.73
2022-11-10T00:36:07.435Z,49.50
2022-11-10T00:41:28.468Z,47.30
2022-11-10T00:46:49.588Z,44.90
2022-11-10T00:52:10.493Z,46.40
2022-11-10T00:57:31.744Z,45.70
2022-11-10T01:02:52.465Z,45.20
2022-11-10T01:08:13.383Z,48.90
2022-11-10T01:13:35.358Z,40.03
2022-11-10T01:18:59.463Z,46.33
2022-11-10T01:24:21.881Z,46.17
2022-11-10T01:29:42.674Z,42.97
2022-11-10T01:35:04.142Z,41.73
2022-11-10T01:40:24.917Z,46.47
2022-11-10T01:45:47.440Z,42.43
2022-11-10T01:51:38.459Z,51.10
2022-11-10T01:57:06.750Z,41.03
2022-11-10T02:02:44.052Z,42.50
2022-11-10T02:08:06.009Z,39.73
2022-11-10T02:13:27.083Z,37.43
2022-11-10T02:18:49.102Z,34.00
2022-11-10T02:24:10.125Z,38.77
2022-11-10T02:29:31.022Z,37.67
2022-11-10T02:34:52.041Z,37.63
2022-11-10T02:40:13.019Z,33.57
2022-11-10T02:45:33.854Z,39.07
2022-11-10T02:50:54.715Z,37.60
2022-11-10T02:56:16.274Z,36.00
2022-11-10T03:01:37.147Z,38.33
2022-11-10T03:06:58.259Z,34.03
2022-11-10T03:12:19.555Z,36.70
2022-11-10T03:17:41.198Z,31.27
2022-11-10T03:23:04.350Z,38.57
2022-11-10T03:28:25.711Z,33.20
2022-11-10T03:33:46.706Z,37.10
2022-11-10T03:39:07.985Z,35.20
2022-11-10T03:44:28.959Z,32.70
2022-11-10T03:49:49.888Z,31.33
2022-11-10T03:55:17.103Z,33.57
2022-11-10T04:00:38.185Z,30.67
2022-11-10T04:06:17.602Z,33.73
2022-11-10T04:11:56.997Z,29.60
2022-11-10T04:17:17.856Z,28.50
2022-11-10T04:22:57.278Z,36.30
2022-11-10T04:28:18.346Z,29.53
2022-11-10T04:33:40.457Z,27.50
2022-11-10T04:39:02.001Z,30.77
2022-11-10T04:44:23.219Z,25.90
2022-11-10T04:49:44.141Z,29.80
2022-11-10T04:55:05.526Z,27.47
2022-11-10T05:00:26.639Z,28.50
2022-11-10T05:05:47.524Z,25.73
2022-11-10T05:11:09.065Z,32.00
2022-11-10T05:16:30.088Z,27.17
2022-11-10T05:21:51.038Z,21.03
2022-11-10T05:27:12.271Z,22.97
2022-11-10T05:32:33.472Z,22.90
2022-11-10T05:37:54.494Z,27.40
2022-11-10T05:43:15.439Z,24.97
2022-11-10T05:48:36.253Z,26.93
2022-11-10T05:53:57.307Z,25.97
2022-11-10T05:59:18.528Z,28.43
2022-11-10T06:55:42.426Z,17.33
2022-11-10T07:01:03.589Z,17.43
2022-11-10T07:06:24.803Z,15.70
2022-11-10T07:11:45.784Z,13.77
2022-11-10T07:17:06.619Z,19.73
2022-11-10T07:22:27.685Z,14.33
2022-11-10T07:27:56.606Z,16.70
2022-11-10T07:33:17.919Z,115.57
2022-11-10T07:38:38.938Z,53.43
2022-11-10T07:44:03.074Z,56.00
2022-11-10T07:49:24.060Z,47.53
2022-11-10T07:54:45.289Z,53.47
2022-11-10T08:00:07.438Z,57.40
2022-11-10T08:05:28.338Z,24.83
2022-11-10T08:10:49.610Z,48.83
2022-11-10T08:16:11.074Z,39.67
2022-11-10T08:21:32.046Z,37.60
2022-11-10T08:26:52.899Z,13.70
2022-11-10T08:32:14.056Z,28.00
2022-11-10T08:37:35.208Z,27.93
2022-11-10T08:43:00.638Z,25.93
2022-11-10T08:48:21.964Z,20.80
2022-11-10T08:53:42.806Z,29.67
2022-11-10T08:59:03.851Z,25.37
2022-11-10T09:04:25.173Z,17.30
2022-11-10T09:10:01.324Z,23.37
2022-11-10T09:15:27.886Z,20.00
2022-11-10T09:20:49.088Z,21.13
2022-11-10T09:26:09.870Z,8.13
2022-11-10T09:31:30.823Z,17.70
2022-11-10T09:36:51.887Z,8.03
2022-11-10T09:42:26.233Z,19.50
2022-11-10T09:48:02.129Z,9.70
2022-11-10T09:53:32.188Z,6.87
2022-11-10T09:58:53.495Z,14.03
2022-11-10T10:04:33.330Z,14.67
2022-11-10T10:10:20.878Z,11.13
2022-11-10T10:15:47.040Z,11.80
2022-11-10T10:21:11.325Z,14.83
2022-11-10T10:26:38.100Z,14.70
2022-11-10T10:32:04.361Z,4.73
2022-11-10T10:37:52.149Z,10.37
2022-11-10T10:43:13.934Z,6.70
2022-11-10T10:48:35.074Z,9.73
2022-11-10T10:53:55.931Z,5.67
2022-11-10T10:59:23.988Z,6.73
2022-11-10T11:04:45.385Z,12.53
2022-11-10T11:10:29.389Z,7.50
2022-11-10T11:15:59.408Z,13.97
2022-11-10T11:21:37.785Z,4.83
2022-11-10T11:27:25.335Z,6.50
2022-11-10T11:32:59.009Z,47.47
2022-11-10T11:49:43.571Z,12.10
2022-11-10T11:55:51.466Z,11.47
2022-11-10T12:01:44.573Z,17.87
2022-11-10T12:07:31.407Z,4.97
2022-11-10T12:13:37.366Z,9.47
2022-11-10T12:19:29.456Z,14.53
2022-11-10T12:25:21.686Z,16.20
2022-11-10T12:36:40.084Z,10.07
2022-11-10T12:42:21.386Z,5.77
2022-11-10T12:47:49.771Z,10.37
2022-11-10T12:53:34.133Z,12.93
2022-11-10T12:59:32.333Z,4.50
2022-11-10T13:05:23.749Z,7.87
2022-11-10T13:11:03.304Z,6.77
2022-11-10T13:16:46.293Z,7.07
2022-11-10T13:22:25.224Z,6.47
2022-11-10T13:27:50.072Z,9.70
2022-11-10T13:33:36.414Z,6.40
2022-11-10T13:38:57.964Z,8.20
2022-11-10T13:44:26.565Z,7.97
2022-11-10T13:50:14.860Z,3.47
2022-11-10T13:56:00.357Z,11.77
2022-11-10T14:01:27.089Z,5.83
2022-11-10T14:06:55.445Z,4.00
2022-11-10T14:12:28.789Z,4.90
2022-11-10T14:17:53.572Z,8.67
2022-11-10T14:23:49.700Z,5.57
2022-11-10T14:29:29.414Z,5.93
2022-11-10T14:34:52.508Z,5.23
2022-11-10T14:40:19.085Z,3.87
2022-11-10T14:45:51.133Z,9.20
2022-11-10T14:51:17.560Z,6.00
2022-11-10T14:56:45.385Z,2.90
2022-11-10T15:02:17.147Z,7.43
2022-11-10T15:07:38.108Z,6.77
2022-11-10T15:13:07.679Z,10.57
2022-11-10T15:18:30.192Z,9.67
2022-11-10T15:23:56.722Z,7.77
2022-11-10T15:29:23.119Z,10.27
2022-11-10T15:34:45.975Z,4.53
2022-11-10T15:40:30.339Z,8.27
2022-11-10T15:46:00.031Z,9.77
2022-11-10T15:51:26.312Z,8.60
2022-11-10T15:56:48.127Z,8.43
2022-11-10T16:02:27.587Z,7.97
2022-11-10T16:07:48.605Z,12.63
2022-11-10T16:13:12.910Z,16.23
2022-11-10T16:18:34.343Z,11.60
2022-11-10T16:23:55.244Z,11.30
2022-11-10T16:29:19.223Z,21.73
2022-11-10T16:34:40.591Z,26.73
2022-11-10T16:40:01.489Z,33.87
2022-11-10T16:45:30.310Z,29.37
2022-11-10T16:50:54.036Z,27.83
2022-11-10T16:56:17.522Z,22.27
2022-11-10T17:01:41.805Z,15.87
2022-11-10T17:07:02.796Z,17.93
2022-11-10T17:12:24.542Z,13.07
2022-11-10T17:17:48.711Z,26.17
2022-11-10T17:23:14.632Z,21.10
2022-11-10T17:28:36.207Z,28.07
2022-11-10T17:33:56.986Z,27.93
2022-11-10T17:39:18.757Z,28.50
2022-11-10T17:44:39.704Z,30.37
2022-11-10T17:50:00.650Z,28.20
2022-11-10T17:55:33.807Z,29.17
2022-11-10T18:00:55.965Z,16.60
2022-11-10T18:06:19.227Z,17.47
2022-11-10T18:11:40.269Z,21.27
2022-11-10T18:17:01.347Z,21.47
2022-11-10T18:22:22.267Z,22.17
2022-11-10T18:27:43.645Z,25.53
2022-11-10T18:33:06.172Z,17.50
2022-11-10T18:38:27.736Z,27.97
2022-11-10T18:43:49.230Z,13.90
2022-11-10T18:49:10.308Z,13.67
2022-11-10T18:54:31.463Z,17.00
2022-11-10T18:59:52.673Z,15.67
2022-11-10T19:05:13.892Z,20.33
2022-11-10T19:10:36.010Z,16.10
2022-11-10T19:16:00.385Z,15.13
2022-11-10T19:21:24.541Z,20.73
2022-11-10T19:26:52.874Z,25.67
2022-11-10T19:32:14.093Z,28.90
2022-11-10T19:37:36.752Z,30.27
2022-11-10T19:42:58.406Z,25.70
2022-11-10T19:48:19.465Z,26.00
2022-11-10T19:53:42.516Z,27.40
2022-11-10T19:59:04.198Z,28.03
2022-11-10T20:04:53.996Z,28.00
2022-11-10T20:10:15.780Z,25.83
2022-11-10T20:15:41.964Z,27.10
2022-11-10T20:21:08.693Z,26.50
2022-11-10T20:26:29.801Z,28.20
2022-11-10T20:31:50.620Z,34.77
2022-11-10T20:37:11.709Z,22.67
2022-11-10T20:42:33.446Z,25.47
2022-11-10T20:47:54.326Z,26.63
2022-11-10T20:53:15.246Z,25.80
2022-11-10T20:58:36.414Z,25.10
2022-11-10T21:03:57.606Z,26.50
2022-11-10T21:09:19.990Z,24.23
2022-11-10T21:14:40.834Z,15.20
2022-11-10T21:20:01.915Z,13.03
2022-11-10T21:25:22.685Z,13.63
2022-11-10T21:30:43.808Z,18.27
2022-11-10T21:36:06.930Z,14.40
2022-11-10T21:41:28.310Z,13.97
2022-11-10T21:46:49.373Z,15.23
2022-11-10T21:52:10.573Z,16.60
2022-11-10T21:57:31.681Z,14.27
2022-11-10T22:02:58.492Z,16.03
2022-11-10T22:08:21.873Z,15.90
2022-11-10T22:14:01.667Z,10.40
2022-11-10T22:19:22.629Z,12.03
2022-11-10T22:24:43.859Z,10.90
2022-11-10T22:30:05.221Z,16.40
2022-11-10T22:35:44.540Z,13.00
2022-11-10T22:41:24.676Z,13.60
2022-11-10T22:46:52.161Z,15.13
2022-11-10T22:52:12.826Z,15.63
2022-11-10T22:57:33.925Z,19.97
2022-11-10T23:02:55.013Z,14.23
2022-11-10T23:08:15.969Z,11.17
2022-11-10T23:13:38.253Z,11.20
2022-11-10T23:18:59.614Z,12.83
2022-11-10T23:24:22.906Z,16.53
2022-11-10T23:29:44.121Z,14.77
2022-11-10T23:35:05.568Z,17.67
2022-11-10T23:40:26.578Z,13.00
2022-11-10T23:46:05.782Z,12.27
2022-11-10T23:51:27.867Z,16.00
2022-11-10T23:56:48.763Z,20.80
